Time;durP1;ratioP1;P1;durP2;ratioP2;P2;SDS_P1;SDS_P2;PMS_P1;PMS_P2;Temp;Humidity;BMP_temperature;BMP_pressure;BME280_temperature;BME280_humidity;BME280_pressure;Samples;Min_cycle;Max_cycle;Signal;HPM_P1;HPM_P2
2022/06/27 00:01:48;;;;;;;3.10;2.03;;;19.90;91.30;;;;;;5083542;28;20329;-74
2022/06/27 00:04:14;;;;;;;2.10;1.87;;;19.80;91.00;;;;;;5078520;28;20207;-75
2022/06/27 00:06:40;;;;;;;5.20;2.00;;;19.70;90.80;;;;;;5089622;28;20844;-73
2022/06/27 00:09:06;;;;;;;2.47;1.60;;;19.70;90.40;;;;;;5084621;28;20184;-73
2022/06/27 00:11:33;;;;;;;1.93;1.60;;;19.70;90.20;;;;;;5086424;28;20206;-74
2022/06/27 00:13:59;;;;;;;2.17;1.70;;;19.60;90.40;;;;;;5090897;28;20433;-74
2022/06/27 00:16:24;;;;;;;2.10;1.40;;;19.60;88.40;;;;;;5081432;28;20466;-74
2022/06/27 00:18:50;;;;;;;3.00;1.00;;;19.60;88.90;;;;;;5089110;28;20187;-74
2022/06/27 00:21:16;;;;;;;1.90;1.27;;;19.60;87.80;;;;;;5086272;28;20681;-73
2022/06/27 00:23:41;;;;;;;2.80;1.40;;;19.40;88.10;;;;;;5084995;28;20194;-73
2022/06/27 00:26:08;;;;;;;3.00;1.07;;;19.40;88.90;;;;;;5087867;28;20182;-73
2022/06/27 00:28:34;;;;;;;1.50;1.10;;;19.30;89.00;;;;;;5084678;28;20172;-73
2022/06/27 00:30:59;;;;;;;1.73;1.07;;;19.00;90.10;;;;;;5084182;28;20885;-73
2022/06/27 00:33:25;;;;;;;2.50;1.20;;;18.70;90.80;;;;;;5084643;28;20189;-74
2022/06/27 00:35:53;;;;;;;4.10;1.30;;;18.80;91.60;;;;;;5074141;28;20197;-74
2022/06/27 00:38:19;;;;;;;2.10;1.33;;;18.80;92.40;;;;;;5093968;28;20561;-74
2022/06/27 00:40:45;;;;;;;3.67;1.47;;;18.60;92.80;;;;;;5093441;28;20998;-76
2022/06/27 00:43:11;;;;;;;3.87;1.50;;;18.40;93.10;;;;;;5088891;28;20439;-73
2022/06/27 00:45:37;;;;;;;3.80;1.37;;;18.30;94.20;;;;;;5079223;28;20827;-73
2022/06/27 00:48:03;;;;;;;6.17;1.80;;;18.10;95.20;;;;;;5088886;28;20545;-74
2022/06/27 00:50:29;;;;;;;3.93;1.50;;;17.90;96.20;;;;;;5083648;28;20199;-73
2022/06/27 00:52:55;;;;;;;3.90;1.70;;;17.60;97.20;;;;;;5081971;28;20410;-75
2022/06/27 00:55:20;;;;;;;5.00;1.80;;;17.50;97.60;;;;;;5089066;28;20203;-75
2022/06/27 00:57:46;;;;;;;3.70;1.80;;;17.40;98.00;;;;;;5085665;28;20216;-74
2022/06/27 01:00:13;;;;;;;4.83;1.93;;;17.40;98.40;;;;;;5083804;28;20203;-74
2022/06/27 01:02:39;;;;;;;5.80;2.20;;;17.40;98.80;;;;;;5087745;28;20207;-75
2022/06/27 01:05:06;;;;;;;6.60;2.10;;;17.40;99.10;;;;;;5078171;28;20820;-76
2022/06/27 01:07:32;;;;;;;2.87;1.40;;;17.40;99.20;;;;;;5073175;28;20480;-75
2022/06/27 01:09:59;;;;;;;4.50;1.83;;;17.40;99.40;;;;;;5082843;28;20433;-75
2022/06/27 01:12:25;;;;;;;3.33;1.80;;;17.40;99.60;;;;;;5088365;28;20199;-75
2022/06/27 01:14:51;;;;;;;4.37;1.70;;;17.30;99.30;;;;;;5078730;28;20830;-76
2022/06/27 01:17:18;;;;;;;2.67;1.87;;;17.30;99.40;;;;;;5093764;28;20262;-77
2022/06/27 01:19:43;;;;;;;4.60;1.83;;;17.30;99.40;;;;;;5086307;28;20417;-75
2022/06/27 01:22:10;;;;;;;4.13;1.67;;;17.40;99.70;;;;;;5082292;28;20427;-74
2022/06/27 01:24:36;;;;;;;4.60;1.77;;;17.50;99.70;;;;;;5082340;28;20196;-75
2022/06/27 01:27:03;;;;;;;3.10;1.83;;;17.60;99.80;;;;;;5093043;28;20421;-74
2022/06/27 01:29:29;;;;;;;4.80;1.80;;;17.70;99.80;;;;;;5085460;28;20271;-76
2022/06/27 01:31:55;;;;;;;8.10;1.90;;;17.70;99.80;;;;;;5090384;28;20579;-76
2022/06/27 01:34:21;;;;;;;4.03;1.73;;;17.60;99.80;;;;;;5092569;28;20174;-75
2022/06/27 01:36:48;;;;;;;3.30;1.90;;;17.60;99.80;;;;;;5071881;28;20184;-76
2022/06/27 01:39:25;;;;;;;3.90;2.07;;;17.60;99.70;;;;;;5064035;28;20417;-76
2022/06/27 01:41:53;;;;;;;2.77;1.50;;;17.60;99.90;;;;;;5089872;28;20449;-75
2022/06/27 01:44:21;;;;;;;3.30;1.67;;;17.60;99.80;;;;;;5087611;28;20722;-75
2022/06/27 01:46:48;;;;;;;4.77;1.77;;;17.70;99.80;;;;;;5092975;28;20423;-74
2022/06/27 01:49:15;;;;;;;3.67;1.27;;;17.70;99.80;;;;;;5089336;28;20924;-74
2022/06/27 01:51:49;;;;;;;5.90;1.90;;;17.70;99.70;;;;;;5077011;28;20981;-75
2022/06/27 01:54:16;;;;;;;4.57;2.30;;;17.60;99.80;;;;;;5077514;28;20409;-74
2022/06/27 01:56:44;;;;;;;3.10;1.70;;;17.70;99.70;;;;;;5070167;28;20473;-74
2022/06/27 01:59:13;;;;;;;4.20;1.70;;;17.70;99.70;;;;;;5085851;28;20803;-74
2022/06/27 02:01:43;;;;;;;4.70;2.10;;;17.70;99.90;;;;;;5091628;28;21017;-75
2022/06/27 02:04:10;;;;;;;4.10;1.93;;;17.80;99.90;;;;;;5087132;28;20488;-73
2022/06/27 02:06:36;;;;;;;3.70;1.57;;;17.90;99.80;;;;;;5085016;28;20414;-75
2022/06/27 02:09:05;;;;;;;4.30;1.77;;;17.70;99.50;;;;;;5077835;28;20442;-74
2022/06/27 02:11:31;;;;;;;5.83;1.50;;;17.70;99.40;;;;;;5083754;28;20197;-74
2022/06/27 02:13:58;;;;;;;2.10;1.60;;;17.80;99.30;;;;;;5081939;28;20778;-76
2022/06/27 02:16:25;;;;;;;3.03;1.60;;;17.80;99.10;;;;;;5080986;28;20449;-76
2022/06/27 02:18:52;;;;;;;2.00;1.27;;;17.80;98.90;;;;;;5080792;28;20411;-76
2022/06/27 02:21:23;;;;;;;2.60;1.20;;;17.70;98.40;;;;;;5083149;28;20442;-75
2022/06/27 02:23:49;;;;;;;4.63;2.00;;;17.60;98.40;;;;;;5082477;28;20433;-76
2022/06/27 02:26:16;;;;;;;3.07;1.50;;;17.70;98.30;;;;;;5073365;28;20875;-75
2022/06/27 02:28:43;;;;;;;4.40;1.60;;;17.70;98.30;;;;;;5090048;28;20421;-74
2022/06/27 02:31:09;;;;;;;3.93;1.20;;;17.60;98.10;;;;;;5093840;28;20444;-74
2022/06/27 02:33:38;;;;;;;1.97;1.37;;;17.60;98.10;;;;;;5084763;28;20413;-75
2022/06/27 02:36:06;;;;;;;3.40;1.67;;;17.60;98.00;;;;;;5090729;28;20965;-74
2022/06/27 02:38:32;;;;;;;2.53;1.67;;;17.60;97.90;;;;;;5082984;28;20492;-75
2022/06/27 02:41:00;;;;;;;2.23;1.20;;;17.60;98.00;;;;;;5076432;28;20445;-74
2022/06/27 02:43:29;;;;;;;6.43;2.07;;;17.50;98.10;;;;;;5086979;28;20421;-75
2022/06/27 02:45:56;;;;;;;4.73;2.03;;;17.50;98.00;;;;;;5076973;28;20490;-74
2022/06/27 02:48:24;;;;;;;3.20;1.43;;;17.50;98.10;;;;;;5086587;28;20417;-75
2022/06/27 02:51:02;;;;;;;2.10;1.30;;;17.50;98.20;;;;;;5081609;28;20885;-74
2022/06/27 02:53:33;;;;;;;2.20;1.60;;;17.50;98.40;;;;;;5066902;28;20413;-74
2022/06/27 02:56:01;;;;;;;2.57;1.50;;;17.50;98.50;;;;;;5091024;28;20960;-75
2022/06/27 02:58:35;;;;;;;3.53;1.63;;;17.60;98.40;;;;;;5083595;28;20421;-76
2022/06/27 03:01:03;;;;;;;5.80;1.90;;;17.60;98.20;;;;;;5080809;28;20454;-74
2022/06/27 03:03:32;;;;;;;3.17;1.33;;;17.50;98.10;;;;;;5083611;28;20418;-74
2022/06/27 03:06:04;;;;;;;2.40;1.47;;;17.60;97.90;;;;;;5089546;28;20472;-74
2022/06/27 03:08:47;;;;;;;2.63;1.70;;;17.50;97.80;;;;;;5079324;28;20511;-74
2022/06/27 03:11:18;;;;;;;4.27;1.50;;;17.60;98.00;;;;;;5084244;28;20457;-75
2022/06/27 03:13:45;;;;;;;4.10;2.20;;;17.60;98.10;;;;;;5090545;28;20424;-73
2022/06/27 03:16:13;;;;;;;5.10;1.87;;;17.60;98.00;;;;;;5087592;28;20419;-74
2022/06/27 03:18:39;;;;;;;3.90;1.70;;;17.60;98.00;;;;;;5083958;28;21074;-75
2022/06/27 03:21:05;;;;;;;4.20;2.03;;;17.60;98.00;;;;;;5082842;28;20444;-74
2022/06/27 03:23:31;;;;;;;5.93;2.00;;;17.60;98.10;;;;;;5078635;28;20418;-73
2022/06/27 03:25:57;;;;;;;5.23;2.30;;;17.60;98.00;;;;;;5085809;28;20195;-74
2022/06/27 03:28:23;;;;;;;3.77;2.30;;;17.60;97.80;;;;;;5089228;28;20422;-73
2022/06/27 03:30:49;;;;;;;4.50;2.20;;;17.50;97.70;;;;;;5081332;28;20877;-73
2022/06/27 03:33:16;;;;;;;4.33;2.33;;;17.50;97.80;;;;;;5090267;28;20421;-74
2022/06/27 03:35:42;;;;;;;4.37;2.57;;;17.50;97.80;;;;;;5071301;28;20545;-73
2022/06/27 03:38:09;;;;;;;3.93;2.83;;;17.50;97.90;;;;;;5081891;28;20500;-73
2022/06/27 03:40:35;;;;;;;4.17;2.50;;;17.50;97.80;;;;;;5071831;28;20459;-73
2022/06/27 03:43:01;;;;;;;5.73;2.53;;;17.60;97.90;;;;;;5081864;28;20988;-73
2022/06/27 03:45:27;;;;;;;5.50;2.57;;;17.60;98.00;;;;;;5084563;28;20499;-73
2022/06/27 03:47:55;;;;;;;4.10;2.60;;;17.60;98.00;;;;;;5078847;28;20462;-73
2022/06/27 03:50:23;;;;;;;4.97;2.70;;;17.60;98.00;;;;;;5082623;28;20970;-73
2022/06/27 03:52:49;;;;;;;7.53;2.30;;;17.60;98.00;;;;;;5083115;28;20421;-74
2022/06/27 03:55:16;;;;;;;4.53;2.70;;;17.60;98.10;;;;;;5086999;28;20507;-73
2022/06/27 03:57:49;;;;;;;4.20;2.20;;;17.70;97.80;;;;;;5091689;28;20484;-72
2022/06/27 04:00:17;;;;;;;4.30;2.80;;;17.60;97.70;;;;;;5081133;28;20442;-73
2022/06/27 04:02:42;;;;;;;6.17;2.50;;;17.70;97.60;;;;;;5070583;28;20979;-73
2022/06/27 04:05:08;;;;;;;5.30;2.43;;;17.70;97.70;;;;;;5079482;28;20467;-73
2022/06/27 04:07:34;;;;;;;4.80;2.70;;;17.80;98.00;;;;;;5094073;28;20606;-74
2022/06/27 04:10:00;;;;;;;3.97;2.40;;;17.80;97.90;;;;;;5085183;28;20540;-74
2022/06/27 04:12:26;;;;;;;4.73;2.53;;;17.80;97.60;;;;;;5085170;28;20236;-73
2022/06/27 04:14:52;;;;;;;3.00;2.30;;;17.80;97.30;;;;;;5084302;28;20431;-73
2022/06/27 04:17:17;;;;;;;4.60;2.83;;;17.80;97.30;;;;;;5078266;28;20209;-74
2022/06/27 04:19:44;;;;;;;3.40;2.60;;;17.80;97.40;;;;;;5081566;28;20209;-74
2022/06/27 04:22:09;;;;;;;5.07;2.43;;;17.90;97.90;;;;;;5081109;28;20221;-74
2022/06/27 04:24:36;;;;;;;5.30;2.40;;;17.90;97.90;;;;;;5089167;28;20499;-74
2022/06/27 04:27:03;;;;;;;5.43;2.23;;;17.90;97.40;;;;;;5066848;28;20278;-74
2022/06/27 04:29:30;;;;;;;3.80;1.97;;;17.90;97.30;;;;;;5076857;28;20422;-74
2022/06/27 04:31:57;;;;;;;3.87;2.10;;;18.00;97.30;;;;;;5081086;28;20855;-74
2022/06/27 04:34:23;;;;;;;3.80;2.10;;;18.00;97.10;;;;;;5075408;28;20962;-72
2022/06/27 04:36:49;;;;;;;2.83;2.37;;;18.00;96.90;;;;;;5074407;28;20486;-74
2022/06/27 04:39:17;;;;;;;5.57;3.03;;;18.00;96.80;;;;;;5086527;28;20416;-74
2022/06/27 04:41:44;;;;;;;5.70;2.57;;;18.00;96.90;;;;;;5082166;28;20522;-73
2022/06/27 04:44:11;;;;;;;4.70;2.23;;;18.10;96.90;;;;;;5081025;28;20425;-74
2022/06/27 04:46:38;;;;;;;4.00;2.70;;;18.20;96.90;;;;;;5083338;28;20500;-73
2022/06/27 04:49:04;;;;;;;3.20;2.30;;;18.30;97.00;;;;;;5085359;28;20415;-73
2022/06/27 04:51:31;;;;;;;2.73;1.80;;;18.40;97.10;;;;;;5073556;28;20959;-74
2022/06/27 04:53:58;;;;;;;3.87;2.40;;;18.50;97.20;;;;;;5080345;28;20419;-74
2022/06/27 04:56:23;;;;;;;2.90;2.00;;;18.60;96.80;;;;;;5095189;28;20420;-73
2022/06/27 04:58:49;;;;;;;2.83;1.80;;;18.70;96.60;;;;;;5081365;28;20506;-74
2022/06/27 05:01:15;;;;;;;4.77;1.90;;;18.70;96.00;;;;;;5069486;28;20250;-74
2022/06/27 05:03:41;;;;;;;4.20;2.43;;;18.80;95.70;;;;;;5088701;28;20172;-73
2022/06/27 05:06:07;;;;;;;3.27;1.97;;;18.80;95.80;;;;;;5094230;28;20248;-74
2022/06/27 05:08:32;;;;;;;4.90;1.80;;;18.80;95.40;;;;;;5085659;28;20416;-74
2022/06/27 05:10:58;;;;;;;5.20;1.93;;;18.70;95.20;;;;;;5092769;28;20247;-75
2022/06/27 05:13:24;;;;;;;6.43;2.07;;;18.80;95.00;;;;;;5095161;28;20187;-74
2022/06/27 05:15:50;;;;;;;5.40;2.30;;;18.90;95.00;;;;;;5095649;28;20577;-74
2022/06/27 05:18:16;;;;;;;6.70;2.50;;;18.90;94.60;;;;;;5082015;28;20420;-74
2022/06/27 05:20:45;;;;;;;3.00;1.80;;;18.90;94.60;;;;;;5086224;28;20293;-74
2022/06/27 05:23:10;;;;;;;3.30;2.30;;;19.10;94.50;;;;;;5083745;28;20207;-74
2022/06/27 05:25:36;;;;;;;3.40;2.07;;;19.10;94.10;;;;;;5082729;28;20459;-74
2022/06/27 05:28:03;;;;;;;5.50;2.20;;;19.20;94.00;;;;;;5076563;28;20188;-73
2022/06/27 05:30:30;;;;;;;3.60;1.93;;;19.30;94.10;;;;;;5074529;28;20240;-73
2022/06/27 05:32:56;;;;;;;3.23;2.40;;;19.40;93.90;;;;;;5082464;28;20420;-74
2022/06/27 05:35:22;;;;;;;3.90;2.00;;;19.40;93.80;;;;;;5077272;28;20569;-74
2022/06/27 05:37:50;;;;;;;5.63;1.90;;;19.40;93.20;;;;;;5087161;28;20187;-75
2022/06/27 05:40:16;;;;;;;2.57;1.90;;;19.40;93.40;;;;;;5073598;28;21007;-74
2022/06/27 05:42:42;;;;;;;6.10;2.10;;;19.40;93.50;;;;;;5084619;28;20435;-74
2022/06/27 05:45:10;;;;;;;4.73;2.20;;;19.50;93.20;;;;;;5095936;28;20567;-74
2022/06/27 05:47:36;;;;;;;4.80;2.27;;;19.50;93.50;;;;;;5095270;28;20419;-74
2022/06/27 05:50:06;;;;;;;5.07;2.07;;;19.50;93.60;;;;;;5090742;28;20472;-73
2022/06/27 05:52:31;;;;;;;3.80;2.80;;;19.50;93.60;;;;;;5091488;28;20858;-74
2022/06/27 05:54:59;;;;;;;3.67;2.20;;;19.60;93.20;;;;;;5073471;28;20435;-74
2022/06/27 05:57:25;;;;;;;4.13;2.00;;;19.60;93.20;;;;;;5092135;28;20528;-74
2022/06/27 05:59:53;;;;;;;4.77;2.20;;;19.60;93.10;;;;;;5083694;28;20417;-75
2022/06/27 06:02:21;;;;;;;6.50;2.27;;;19.60;93.40;;;;;;5086557;28;20454;-74
2022/06/27 06:04:47;;;;;;;6.57;2.67;;;19.80;93.40;;;;;;5084099;28;20500;-75
2022/06/27 06:07:14;;;;;;;5.80;2.13;;;19.70;92.10;;;;;;5084341;28;20421;-76
2022/06/27 06:09:40;;;;;;;3.57;2.30;;;19.70;92.80;;;;;;5087301;28;20462;-75
2022/06/27 06:12:09;;;;;;;2.63;1.90;;;19.70;93.00;;;;;;5073312;28;20432;-74
2022/06/27 06:14:36;;;;;;;5.43;2.17;;;19.80;92.40;;;;;;5070308;28;20429;-74
2022/06/27 06:17:03;;;;;;;3.23;2.10;;;19.70;92.60;;;;;;5091905;28;20823;-74
2022/06/27 06:19:29;;;;;;;4.07;2.03;;;19.70;92.50;;;;;;5083657;28;20432;-74
2022/06/27 06:21:55;;;;;;;3.97;1.77;;;19.70;92.10;;;;;;5079938;28;20523;-74
2022/06/27 06:24:21;;;;;;;2.40;1.60;;;19.70;91.90;;;;;;5076011;28;20468;-74
2022/06/27 06:26:47;;;;;;;2.50;1.60;;;19.90;91.80;;;;;;5094501;28;20421;-74
2022/06/27 06:29:15;;;;;;;3.10;2.00;;;20.00;91.40;;;;;;5084374;28;20416;-74
2022/06/27 06:31:43;;;;;;;4.73;1.90;;;20.10;91.30;;;;;;5084601;28;20195;-75
2022/06/27 06:34:10;;;;;;;2.37;1.67;;;20.10;91.20;;;;;;5086196;28;20470;-75
2022/06/27 06:36:38;;;;;;;1.90;1.87;;;20.00;90.70;;;;;;5098955;28;20491;-74
2022/06/27 06:39:05;;;;;;;2.40;1.60;;;19.90;90.90;;;;;;5095963;28;20510;-74
2022/06/27 06:41:31;;;;;;;4.80;2.03;;;19.80;91.20;;;;;;5096275;28;20518;-76
2022/06/27 06:43:59;;;;;;;4.73;1.90;;;19.90;91.60;;;;;;5091508;28;20418;-76
2022/06/27 06:46:25;;;;;;;1.93;1.90;;;19.90;91.60;;;;;;5096984;28;20458;-74
2022/06/27 06:49:12;;;;;;;2.13;1.70;;;20.10;91.70;;;;;;5086637;28;20424;-75
2022/06/27 06:51:39;;;;;;;5.13;1.60;;;20.30;91.10;;;;;;5090224;28;20450;-75
2022/06/27 06:54:06;;;;;;;2.30;1.83;;;20.30;90.30;;;;;;5086470;28;20521;-74
2022/06/27 06:56:33;;;;;;;2.77;2.10;;;20.30;90.30;;;;;;5090471;28;20509;-75
2022/06/27 06:59:01;;;;;;;4.60;1.83;;;20.40;89.90;;;;;;5087094;28;20432;-73
2022/06/27 07:01:27;;;;;;;2.80;1.60;;;20.40;90.00;;;;;;5092226;28;20465;-75
2022/06/27 07:03:57;;;;;;;4.23;2.10;;;20.70;89.90;;;;;;5082892;28;20432;-75
2022/06/27 07:06:24;;;;;;;2.53;1.33;;;20.40;88.10;;;;;;5077701;28;20456;-75
2022/06/27 07:08:54;;;;;;;2.13;1.30;;;20.40;90.00;;;;;;5089518;28;20414;-74
2022/06/27 07:11:25;;;;;;;5.53;1.97;;;20.60;89.60;;;;;;5066051;28;20434;-75
2022/06/27 07:13:51;;;;;;;4.07;1.90;;;20.80;88.10;;;;;;5089404;28;20956;-74
2022/06/27 07:16:21;;;;;;;3.40;1.80;;;20.40;89.00;;;;;;5084544;28;20779;-74
2022/06/27 07:18:48;;;;;;;2.60;1.67;;;20.40;88.60;;;;;;5083344;28;20502;-74
2022/06/27 07:21:21;;;;;;;2.67;1.90;;;20.50;88.90;;;;;;5081346;28;20430;-74
2022/06/27 07:23:48;;;;;;;2.23;1.60;;;20.40;88.00;;;;;;5090192;28;20442;-74
2022/06/27 07:26:18;;;;;;;3.93;1.73;;;20.30;88.40;;;;;;5083044;28;20461;-74
2022/06/27 07:28:45;;;;;;;4.53;2.03;;;20.20;89.00;;;;;;5086321;28;20421;-74
2022/06/27 07:31:14;;;;;;;5.83;2.00;;;20.30;89.50;;;;;;5075272;28;20452;-75
2022/06/27 07:33:41;;;;;;;2.30;1.87;;;20.30;89.00;;;;;;5086505;28;20455;-73
2022/06/27 07:36:18;;;;;;;2.17;1.83;;;20.30;89.00;;;;;;5091733;28;20429;-75
2022/06/27 07:38:50;;;;;;;1.40;1.30;;;20.60;88.90;;;;;;5094368;28;20428;-75
2022/06/27 07:41:19;;;;;;;2.37;1.60;;;20.90;88.00;;;;;;5093508;28;20433;-74
2022/06/27 07:43:46;;;;;;;3.03;1.67;;;20.70;87.10;;;;;;5083599;28;20437;-74
2022/06/27 07:46:12;;;;;;;1.90;1.50;;;20.60;87.70;;;;;;5095250;28;20744;-74
2022/06/27 07:48:39;;;;;;;3.87;1.87;;;20.50;87.60;;;;;;5086824;28;20415;-74
2022/06/27 07:51:05;;;;;;;1.90;1.40;;;20.60;87.80;;;;;;5070507;28;20422;-74
2022/06/27 07:53:31;;;;;;;1.70;1.40;;;20.70;87.40;;;;;;5087804;28;20411;-74
2022/06/27 07:55:59;;;;;;;1.70;1.60;;;20.80;87.30;;;;;;5094559;28;20502;-74
2022/06/27 07:58:33;;;;;;;2.90;1.60;;;20.70;87.60;;;;;;5086309;28;20424;-73
2022/06/27 08:01:04;;;;;;;2.30;1.60;;;20.80;87.10;;;;;;5081863;28;20497;-75
2022/06/27 08:03:36;;;;;;;2.90;1.70;;;21.00;87.00;;;;;;5083355;28;20423;-75
2022/06/27 08:06:27;;;;;;;2.67;1.40;;;21.30;85.60;;;;;;5091695;28;20474;-74
2022/06/27 08:09:02;;;;;;;1.10;1.10;;;21.40;84.60;;;;;;5094358;28;20495;-75
2022/06/27 08:11:36;;;;;;;2.70;1.50;;;21.80;83.70;;;;;;5070109;28;20502;-73
2022/06/27 08:14:12;;;;;;;2.10;1.40;;;21.50;83.80;;;;;;5084790;28;20419;-74
2022/06/27 08:16:39;;;;;;;2.77;1.50;;;21.30;85.00;;;;;;5081660;28;20476;-74
2022/06/27 08:19:06;;;;;;;2.17;1.50;;;21.30;85.60;;;;;;5090323;28;20418;-72
2022/06/27 08:21:33;;;;;;;3.20;1.57;;;21.40;85.50;;;;;;5074226;28;20446;-75
2022/06/27 08:24:03;;;;;;;4.10;1.50;;;21.60;84.60;;;;;;5085103;28;20457;-75
2022/06/27 08:26:31;;;;;;;1.87;1.60;;;22.10;83.10;;;;;;5085134;28;20425;-75
2022/06/27 08:28:58;;;;;;;2.87;1.60;;;22.40;80.30;;;;;;5083654;28;20424;-74
2022/06/27 08:31:25;;;;;;;3.23;1.40;;;22.60;79.20;;;;;;5085625;28;20437;-75
2022/06/27 08:33:55;;;;;;;4.90;1.33;;;22.60;79.30;;;;;;5086616;28;20405;-74
2022/06/27 08:36:23;;;;;;;2.30;1.50;;;22.60;79.60;;;;;;5075784;28;20777;-73
2022/06/27 08:38:50;;;;;;;1.47;1.30;;;23.00;78.30;;;;;;5089720;28;21001;-73
2022/06/27 08:41:17;;;;;;;1.67;1.50;;;23.10;77.40;;;;;;5088257;28;20518;-74
2022/06/27 08:43:43;;;;;;;2.23;1.70;;;22.70;77.10;;;;;;5085644;28;21009;-75
2022/06/27 08:46:13;;;;;;;2.47;1.70;;;22.40;78.90;;;;;;5077150;28;20462;-74
2022/06/27 08:48:41;;;;;;;2.10;1.90;;;22.20;80.00;;;;;;5089787;28;20430;-74
2022/06/27 08:51:07;;;;;;;2.90;2.03;;;22.10;78.70;;;;;;5084984;28;20440;-74
2022/06/27 08:53:34;;;;;;;2.53;1.90;;;22.30;78.60;;;;;;5087338;28;20801;-74
2022/06/27 08:56:01;;;;;;;2.37;1.80;;;22.20;79.30;;;;;;5093988;28;20492;-74
2022/06/27 08:58:28;;;;;;;2.60;1.77;;;21.90;80.30;;;;;;5085772;28;20436;-74
2022/06/27 09:00:54;;;;;;;2.20;1.60;;;21.80;80.90;;;;;;5070232;28;20462;-74
2022/06/27 09:03:21;;;;;;;1.90;1.80;;;21.60;80.90;;;;;;5093898;28;20917;-74
2022/06/27 09:06:02;;;;;;;2.47;2.13;;;21.70;80.50;;;;;;5086017;28;20635;-75
2022/06/27 09:08:31;;;;;;;3.20;2.40;;;21.80;80.30;;;;;;5085511;28;20415;-75
2022/06/27 09:10:58;;;;;;;3.10;2.07;;;21.70;80.60;;;;;;5067922;28;20830;-75
2022/06/27 09:13:26;;;;;;;2.80;1.70;;;21.70;80.00;;;;;;5093046;28;20442;-74
2022/06/27 09:15:57;;;;;;;2.93;1.67;;;21.40;83.10;;;;;;5083629;28;20418;-74
2022/06/27 09:18:28;;;;;;;3.20;2.17;;;21.50;84.10;;;;;;5089475;28;20543;-75
2022/06/27 09:21:01;;;;;;;2.50;2.23;;;21.70;83.70;;;;;;5076556;28;20530;-73
2022/06/27 09:23:32;;;;;;;3.40;1.97;;;21.80;84.00;;;;;;5090063;28;20421;-75
2022/06/27 09:26:09;;;;;;;4.97;1.83;;;21.70;83.60;;;;;;5091384;28;20497;-74
2022/06/27 09:29:00;;;;;;;2.83;1.83;;;21.80;83.30;;;;;;5096726;28;20446;-73
2022/06/27 09:31:26;;;;;;;3.13;1.80;;;21.50;84.10;;;;;;5087895;28;20948;-74
2022/06/27 09:34:23;;;;;;;2.70;2.20;;;21.50;84.30;;;;;;5084685;28;20426;-74
2022/06/27 09:36:55;;;;;;;13.33;2.40;;;21.60;83.80;;;;;;5095024;28;20508;-74
2022/06/27 09:39:29;;;;;;;2.23;1.90;;;21.50;85.20;;;;;;5074030;28;20441;-75
2022/06/27 09:42:02;;;;;;;2.47;2.27;;;21.50;84.90;;;;;;5083962;28;20494;-73
2022/06/27 09:44:40;;;;;;;2.90;2.37;;;21.50;85.20;;;;;;5079087;28;20535;-75
2022/06/27 09:47:06;;;;;;;3.40;2.30;;;21.50;84.70;;;;;;5082484;28;20747;-74
2022/06/27 09:49:34;;;;;;;4.33;2.60;;;21.60;84.10;;;;;;5083004;28;20418;-74
2022/06/27 09:52:09;;;;;;;4.23;2.63;;;21.80;84.00;;;;;;5088961;28;20237;-73
2022/06/27 09:54:36;;;;;;;2.63;2.10;;;21.80;84.40;;;;;;5083718;28;20419;-74
2022/06/27 09:57:03;;;;;;;4.80;2.50;;;21.50;84.40;;;;;;5083565;28;20429;-75
2022/06/27 09:59:31;;;;;;;4.40;2.50;;;21.40;85.30;;;;;;5083616;28;20427;-75
2022/06/27 10:01:57;;;;;;;3.97;2.40;;;21.20;84.70;;;;;;5082494;28;20542;-74
2022/06/27 10:04:24;;;;;;;4.20;2.30;;;21.20;86.60;;;;;;5091702;28;20783;-73
2022/06/27 10:06:51;;;;;;;3.83;2.60;;;21.20;87.00;;;;;;5082550;28;20458;-76
2022/06/27 10:09:20;;;;;;;4.50;2.00;;;21.60;86.00;;;;;;5080588;28;20423;-74
2022/06/27 10:11:46;;;;;;;2.17;2.00;;;22.10;85.20;;;;;;5082484;28;20435;-75
2022/06/27 10:14:23;;;;;;;3.77;2.60;;;22.20;83.30;;;;;;5088313;28;20790;-75
2022/06/27 10:16:57;;;;;;;2.47;2.33;;;22.20;83.10;;;;;;5073329;28;20809;-75
2022/06/27 10:19:25;;;;;;;3.50;2.40;;;22.40;82.80;;;;;;5080422;28;20420;-75
2022/06/27 10:21:52;;;;;;;3.10;2.63;;;21.90;83.00;;;;;;5088928;28;20952;-75
2022/06/27 10:24:30;;;;;;;2.63;2.43;;;21.80;83.70;;;;;;5085099;28;20414;-76
2022/06/27 10:27:02;;;;;;;3.33;2.80;;;21.60;84.30;;;;;;5080935;28;20425;-76
2022/06/27 10:29:32;;;;;;;5.90;3.00;;;21.60;84.30;;;;;;5073693;28;20416;-75
2022/06/27 10:31:59;;;;;;;3.77;2.90;;;21.40;84.30;;;;;;5064675;28;20453;-76
2022/06/27 10:34:40;;;;;;;4.17;2.93;;;21.30;84.90;;;;;;5086594;28;20630;-75
2022/06/27 10:37:24;;;;;;;4.50;3.70;;;21.30;85.30;;;;;;5061842;28;20442;-75
2022/06/27 10:40:19;;;;;;;3.90;3.27;;;21.30;85.00;;;;;;5088065;28;20420;-75
2022/06/27 10:42:56;;;;;;;4.00;3.47;;;21.50;84.60;;;;;;5051613;28;20522;-75
2022/06/27 10:45:21;;;;;;;5.27;3.53;;;21.70;84.30;;;;;;5079292;28;20551;-74
2022/06/27 10:47:48;;;;;;;7.50;4.70;;;21.90;83.10;;;;;;5089339;28;20569;-74
2022/06/27 10:50:16;;;;;;;5.03;3.60;;;21.70;84.10;;;;;;5066989;28;20833;-75
2022/06/27 10:52:42;;;;;;;7.10;4.00;;;21.40;84.30;;;;;;5089169;28;20854;-74
2022/06/27 10:55:23;;;;;;;4.53;3.80;;;21.50;84.30;;;;;;5084752;28;20429;-74
2022/06/27 10:57:49;;;;;;;3.87;3.20;;;21.40;83.60;;;;;;5087821;28;21000;-74
2022/06/27 11:00:34;;;;;;;4.57;3.70;;;21.40;83.80;;;;;;5072438;28;20927;-74
2022/06/27 11:03:00;;;;;;;10.17;3.70;;;21.60;82.50;;;;;;5081665;28;20801;-74
2022/06/27 11:05:27;;;;;;;4.10;3.57;;;21.60;81.70;;;;;;5085513;28;20557;-74
2022/06/27 11:07:53;;;;;;;6.43;3.97;;;21.60;81.70;;;;;;5084262;28;20416;-74
2022/06/27 11:10:21;;;;;;;7.40;4.00;;;21.60;81.80;;;;;;5083654;28;20852;-75
2022/06/27 11:12:47;;;;;;;5.07;3.60;;;21.70;81.20;;;;;;5082474;28;20419;-75
2022/06/27 11:15:12;;;;;;;5.70;3.40;;;21.40;81.70;;;;;;5091297;28;20437;-76
2022/06/27 11:17:40;;;;;;;9.17;4.07;;;21.60;81.80;;;;;;5083726;28;20898;-74
2022/06/27 11:20:17;;;;;;;5.57;3.50;;;22.00;80.60;;;;;;5084916;28;20627;-75
2022/06/27 11:22:46;;;;;;;4.93;3.60;;;22.20;79.20;;;;;;5082669;28;20937;-74
2022/06/27 11:25:13;;;;;;;4.60;3.43;;;22.20;79.30;;;;;;5068909;28;20468;-75
2022/06/27 11:27:48;;;;;;;4.40;3.60;;;22.20;79.50;;;;;;5090801;28;20840;-74
2022/06/27 11:33:35;;;;;;;4.00;3.27;;;21.60;80.30;;;;;;5025276;28;20415;-74
2022/06/27 11:36:01;;;;;;;4.40;3.53;;;21.80;80.80;;;;;;5081224;28;20425;-75
2022/06/27 11:38:49;;;;;;;4.30;3.60;;;21.90;80.20;;;;;;5071427;28;20592;-75
2022/06/27 11:41:16;;;;;;;4.67;3.80;;;22.00;79.60;;;;;;5070292;28;20806;-74
2022/06/27 11:43:49;;;;;;;4.80;3.77;;;22.00;79.60;;;;;;5078341;28;20431;-73
2022/06/27 11:46:21;;;;;;;4.73;2.90;;;22.10;79.50;;;;;;5075869;28;20463;-74
2022/06/27 11:49:02;;;;;;;8.43;3.77;;;22.00;79.70;;;;;;5071881;28;20430;-76
2022/06/27 11:51:32;;;;;;;6.30;3.90;;;21.70;81.10;;;;;;5089534;28;20446;-74
2022/06/27 11:54:18;;;;;;;5.43;3.63;;;21.80;81.70;;;;;;5072093;28;20450;-74
2022/06/27 11:56:50;;;;;;;4.90;3.37;;;21.80;81.70;;;;;;5079238;28;20508;-73
2022/06/27 11:59:17;;;;;;;6.77;3.90;;;21.80;81.20;;;;;;5082623;28;20909;-74
2022/06/27 12:01:54;;;;;;;4.20;3.40;;;21.50;82.20;;;;;;5089259;28;20466;-76
2022/06/27 12:04:24;;;;;;;4.00;3.17;;;21.70;81.20;;;;;;5078900;28;20430;-74
2022/06/27 12:06:55;;;;;;;3.17;2.80;;;21.70;80.20;;;;;;5083400;28;20478;-75
2022/06/27 12:09:23;;;;;;;4.27;3.30;;;21.70;80.80;;;;;;5090347;28;20413;-74
2022/06/27 12:11:55;;;;;;;4.00;3.30;;;21.60;80.20;;;;;;5079998;28;20444;-75
2022/06/27 12:14:22;;;;;;;5.43;3.00;;;21.70;79.60;;;;;;5079554;28;20425;-74
2022/06/27 12:16:56;;;;;;;5.27;3.53;;;21.60;80.20;;;;;;5094357;28;20447;-76
2022/06/27 12:19:24;;;;;;;6.30;3.20;;;21.50;79.20;;;;;;5075701;28;20479;-74
2022/06/27 12:21:50;;;;;;;4.77;3.00;;;21.30;79.90;;;;;;5074580;28;20529;-73
2022/06/27 12:24:16;;;;;;;4.70;3.33;;;21.10;80.50;;;;;;5085193;28;20780;-74
2022/06/27 12:26:43;;;;;;;3.60;3.23;;;21.20;80.50;;;;;;5083022;28;20421;-74
2022/06/27 12:29:09;;;;;;;4.13;3.10;;;21.20;80.30;;;;;;5085593;28;20422;-75
2022/06/27 12:31:36;;;;;;;4.70;3.60;;;21.10;80.80;;;;;;5084552;28;20468;-75
2022/06/27 12:34:02;;;;;;;4.00;3.30;;;21.10;81.20;;;;;;5085315;28;20501;-74
2022/06/27 12:36:30;;;;;;;5.60;2.93;;;21.10;81.40;;;;;;5088147;28;20418;-74
2022/06/27 12:38:56;;;;;;;3.83;3.03;;;21.10;80.50;;;;;;5091673;28;20928;-74
2022/06/27 12:41:22;;;;;;;3.57;3.23;;;21.00;80.50;;;;;;5084065;28;20437;-75
2022/06/27 12:43:48;;;;;;;4.00;3.13;;;21.10;80.00;;;;;;5092785;28;21022;-74
2022/06/27 12:46:18;;;;;;;5.37;3.70;;;21.10;79.70;;;;;;5083095;28;20459;-74
2022/06/27 12:48:44;;;;;;;9.00;3.57;;;21.10;79.70;;;;;;5077621;28;20186;-73
2022/06/27 12:51:10;;;;;;;5.10;3.90;;;20.90;80.60;;;;;;5083019;28;20442;-75
2022/06/27 12:53:36;;;;;;;6.77;3.73;;;20.80;81.50;;;;;;5088838;28;20413;-74
2022/06/27 12:56:03;;;;;;;5.10;3.13;;;20.90;81.50;;;;;;5081568;28;20780;-75
2022/06/27 12:58:30;;;;;;;5.67;3.23;;;20.80;82.10;;;;;;5088306;28;20423;-74